sensor_id;sensor_type;location;lat;lon;timestamp;P1;durP1;ratioP1;P2;durP2;ratioP2
35646;SDS011;28680;45.642;13.756;2023-02-22T00:01:30;75.43;;;39.67;;
35646;SDS011;28680;45.642;13.756;2023-02-22T00:04:11;79.55;;;38.95;;
35646;SDS011;28680;45.642;13.756;2023-02-22T00:06:38;75.22;;;38.85;;
35646;SDS011;28680;45.642;13.756;2023-02-22T00:09:04;87.68;;;42.60;;
35646;SDS011;28680;45.642;13.756;2023-02-22T00:11:32;87.60;;;41.55;;
35646;SDS011;28680;45.642;13.756;2023-02-22T00:13:59;86.40;;;43.10;;
35646;SDS011;28680;45.642;13.756;2023-02-22T00:16:26;87.70;;;42.80;;
35646;SDS011;28680;45.642;13.756;2023-02-22T00:18:53;80.55;;;41.47;;
35646;SDS011;28680;45.642;13.756;2023-02-22T00:21:19;90.00;;;43.88;;
35646;SDS011;28680;45.642;13.756;2023-02-22T00:23:46;94.22;;;45.25;;
35646;SDS011;28680;45.642;13.756;2023-02-22T00:26:18;92.95;;;44.63;;
35646;SDS011;28680;45.642;13.756;2023-02-22T00:28:46;91.80;;;43.60;;
35646;SDS011;28680;45.642;13.756;2023-02-22T00:31:14;94.35;;;44.03;;
35646;SDS011;28680;45.642;13.756;2023-02-22T00:33:41;97.75;;;46.72;;
35646;SDS011;28680;45.642;13.756;2023-02-22T00:36:08;96.82;;;45.55;;
35646;SDS011;28680;45.642;13.756;2023-02-22T00:38:36;93.78;;;45.88;;
35646;SDS011;28680;45.642;13.756;2023-02-22T00:41:03;92.25;;;45.42;;
35646;SDS011;28680;45.642;13.756;2023-02-22T00:43:29;96.88;;;46.28;;
35646;SDS011;28680;45.642;13.756;2023-02-22T00:45:55;95.40;;;44.55;;
35646;SDS011;28680;45.642;13.756;2023-02-22T00:48:21;98.90;;;45.88;;
35646;SDS011;28680;45.642;13.756;2023-02-22T00:50:47;96.20;;;45.75;;
35646;SDS011;28680;45.642;13.756;2023-02-22T00:53:15;96.28;;;43.88;;
35646;SDS011;28680;45.642;13.756;2023-02-22T00:55:41;100.03;;;46.03;;
35646;SDS011;28680;45.642;13.756;2023-02-22T00:58:07;100.53;;;45.17;;
35646;SDS011;28680;45.642;13.756;2023-02-22T01:00:37;92.68;;;43.83;;
35646;SDS011;28680;45.642;13.756;2023-02-22T01:03:06;102.93;;;46.85;;
35646;SDS011;28680;45.642;13.756;2023-02-22T01:05:35;92.60;;;44.97;;
35646;SDS011;28680;45.642;13.756;2023-02-22T01:08:02;101.07;;;47.67;;
35646;SDS011;28680;45.642;13.756;2023-02-22T01:10:31;96.75;;;45.42;;
35646;SDS011;28680;45.642;13.756;2023-02-22T01:12:57;99.18;;;46.33;;
35646;SDS011;28680;45.642;13.756;2023-02-22T01:15:26;98.90;;;46.38;;
35646;SDS011;28680;45.642;13.756;2023-02-22T01:17:54;103.80;;;46.75;;
35646;SDS011;28680;45.642;13.756;2023-02-22T01:20:22;102.75;;;46.00;;
35646;SDS011;28680;45.642;13.756;2023-02-22T01:22:51;93.30;;;44.40;;
35646;SDS011;28680;45.642;13.756;2023-02-22T01:25:20;99.18;;;44.13;;
35646;SDS011;28680;45.642;13.756;2023-02-22T01:27:49;96.10;;;44.95;;
35646;SDS011;28680;45.642;13.756;2023-02-22T01:30:18;99.38;;;44.60;;
35646;SDS011;28680;45.642;13.756;2023-02-22T01:32:48;99.25;;;46.83;;
35646;SDS011;28680;45.642;13.756;2023-02-22T01:35:19;98.95;;;44.15;;
35646;SDS011;28680;45.642;13.756;2023-02-22T01:37:49;91.70;;;43.92;;
35646;SDS011;28680;45.642;13.756;2023-02-22T01:40:21;90.40;;;41.75;;
35646;SDS011;28680;45.642;13.756;2023-02-22T01:42:58;93.82;;;43.83;;
35646;SDS011;28680;45.642;13.756;2023-02-22T01:51:11;94.90;;;42.28;;
35646;SDS011;28680;45.642;13.756;2023-02-22T01:53:54;100.53;;;46.10;;
35646;SDS011;28680;45.642;13.756;2023-02-22T01:56:30;102.43;;;45.20;;
35646;SDS011;28680;45.642;13.756;2023-02-22T01:59:02;90.82;;;44.33;;
35646;SDS011;28680;45.642;13.756;2023-02-22T02:01:34;104.75;;;45.92;;
35646;SDS011;28680;45.642;13.756;2023-02-22T02:04:03;95.07;;;45.55;;
35646;SDS011;28680;45.642;13.756;2023-02-22T02:06:34;93.45;;;45.13;;
35646;SDS011;28680;45.642;13.756;2023-02-22T02:09:03;96.30;;;45.35;;
35646;SDS011;28680;45.642;13.756;2023-02-22T02:11:40;89.22;;;42.88;;
35646;SDS011;28680;45.642;13.756;2023-02-22T02:14:08;97.45;;;44.22;;
35646;SDS011;28680;45.642;13.756;2023-02-22T02:16:39;94.85;;;44.08;;
35646;SDS011;28680;45.642;13.756;2023-02-22T02:19:36;93.82;;;43.08;;
35646;SDS011;28680;45.642;13.756;2023-02-22T02:34:41;110.57;;;47.50;;
35646;SDS011;28680;45.642;13.756;2023-02-22T02:37:56;107.30;;;48.45;;
35646;SDS011;28680;45.642;13.756;2023-02-22T02:43:20;106.40;;;48.90;;
35646;SDS011;28680;45.642;13.756;2023-02-22T02:49:00;108.68;;;51.20;;
35646;SDS011;28680;45.642;13.756;2023-02-22T02:51:36;112.07;;;50.60;;
35646;SDS011;28680;45.642;13.756;2023-02-22T02:54:08;120.13;;;51.88;;
35646;SDS011;28680;45.642;13.756;2023-02-22T02:56:35;114.90;;;48.17;;
35646;SDS011;28680;45.642;13.756;2023-02-22T02:59:01;114.80;;;49.58;;
35646;SDS011;28680;45.642;13.756;2023-02-22T03:07:25;110.22;;;47.33;;
35646;SDS011;28680;45.642;13.756;2023-02-22T03:13:38;105.68;;;46.92;;
35646;SDS011;28680;45.642;13.756;2023-02-22T03:16:51;100.68;;;46.17;;
35646;SDS011;28680;45.642;13.756;2023-02-22T03:19:44;101.47;;;46.28;;
35646;SDS011;28680;45.642;13.756;2023-02-22T03:22:23;104.45;;;47.38;;
35646;SDS011;28680;45.642;13.756;2023-02-22T03:25:06;103.10;;;47.45;;
35646;SDS011;28680;45.642;13.756;2023-02-22T03:27:47;104.55;;;46.88;;
35646;SDS011;28680;45.642;13.756;2023-02-22T03:30:24;89.43;;;42.22;;
35646;SDS011;28680;45.642;13.756;2023-02-22T03:33:23;85.55;;;39.10;;
35646;SDS011;28680;45.642;13.756;2023-02-22T03:36:06;84.53;;;39.15;;
35646;SDS011;28680;45.642;13.756;2023-02-22T03:38:40;83.07;;;39.33;;
35646;SDS011;28680;45.642;13.756;2023-02-22T03:41:08;87.57;;;40.25;;
35646;SDS011;28680;45.642;13.756;2023-02-22T03:43:37;102.70;;;46.15;;
35646;SDS011;28680;45.642;13.756;2023-02-22T03:46:11;103.50;;;46.80;;
35646;SDS011;28680;45.642;13.756;2023-02-22T03:51:21;93.57;;;42.42;;
35646;SDS011;28680;45.642;13.756;2023-02-22T03:53:48;76.32;;;36.05;;
35646;SDS011;28680;45.642;13.756;2023-02-22T03:56:17;76.68;;;35.70;;
35646;SDS011;28680;45.642;13.756;2023-02-22T03:58:52;78.78;;;35.90;;
35646;SDS011;28680;45.642;13.756;2023-02-22T04:01:19;73.30;;;33.90;;
35646;SDS011;28680;45.642;13.756;2023-02-22T04:03:47;75.78;;;34.88;;
35646;SDS011;28680;45.642;13.756;2023-02-22T04:06:13;70.10;;;34.65;;
35646;SDS011;28680;45.642;13.756;2023-02-22T04:08:39;88.57;;;38.03;;
35646;SDS011;28680;45.642;13.756;2023-02-22T04:11:08;96.75;;;41.35;;
35646;SDS011;28680;45.642;13.756;2023-02-22T04:13:34;88.05;;;39.95;;
35646;SDS011;28680;45.642;13.756;2023-02-22T04:16:00;75.03;;;35.50;;
35646;SDS011;28680;45.642;13.756;2023-02-22T04:18:25;76.05;;;33.97;;
35646;SDS011;28680;45.642;13.756;2023-02-22T04:20:51;76.57;;;33.95;;
35646;SDS011;28680;45.642;13.756;2023-02-22T04:23:17;71.22;;;32.97;;
35646;SDS011;28680;45.642;13.756;2023-02-22T04:25:43;73.45;;;32.55;;
35646;SDS011;28680;45.642;13.756;2023-02-22T04:28:09;65.43;;;30.38;;
35646;SDS011;28680;45.642;13.756;2023-02-22T04:30:36;63.65;;;30.98;;
35646;SDS011;28680;45.642;13.756;2023-02-22T04:33:02;55.15;;;29.00;;
35646;SDS011;28680;45.642;13.756;2023-02-22T04:35:28;57.53;;;29.23;;
35646;SDS011;28680;45.642;13.756;2023-02-22T04:37:53;62.50;;;28.70;;
35646;SDS011;28680;45.642;13.756;2023-02-22T04:40:19;60.15;;;29.75;;
35646;SDS011;28680;45.642;13.756;2023-02-22T04:42:45;60.47;;;28.80;;
35646;SDS011;28680;45.642;13.756;2023-02-22T04:45:11;56.25;;;27.65;;
35646;SDS011;28680;45.642;13.756;2023-02-22T04:47:37;57.47;;;28.20;;
35646;SDS011;28680;45.642;13.756;2023-02-22T04:50:04;54.33;;;26.60;;
35646;SDS011;28680;45.642;13.756;2023-02-22T04:52:32;60.97;;;29.88;;
35646;SDS011;28680;45.642;13.756;2023-02-22T04:54:58;55.33;;;27.63;;
35646;SDS011;28680;45.642;13.756;2023-02-22T04:57:23;52.80;;;25.60;;
35646;SDS011;28680;45.642;13.756;2023-02-22T04:59:49;52.92;;;26.90;;
35646;SDS011;28680;45.642;13.756;2023-02-22T05:02:15;55.17;;;27.40;;
35646;SDS011;28680;45.642;13.756;2023-02-22T05:04:42;58.15;;;27.50;;
35646;SDS011;28680;45.642;13.756;2023-02-22T05:07:09;57.88;;;27.95;;
35646;SDS011;28680;45.642;13.756;2023-02-22T05:09:35;55.33;;;27.55;;
35646;SDS011;28680;45.642;13.756;2023-02-22T05:12:01;62.60;;;27.65;;
35646;SDS011;28680;45.642;13.756;2023-02-22T05:14:26;56.10;;;26.30;;
35646;SDS011;28680;45.642;13.756;2023-02-22T05:16:53;60.55;;;29.17;;
35646;SDS011;28680;45.642;13.756;2023-02-22T05:19:23;57.22;;;28.60;;
35646;SDS011;28680;45.642;13.756;2023-02-22T05:21:49;60.13;;;27.50;;
35646;SDS011;28680;45.642;13.756;2023-02-22T05:24:15;60.00;;;29.35;;
35646;SDS011;28680;45.642;13.756;2023-02-22T05:26:42;62.63;;;30.20;;
35646;SDS011;28680;45.642;13.756;2023-02-22T05:29:08;68.43;;;30.80;;
35646;SDS011;28680;45.642;13.756;2023-02-22T05:31:34;75.05;;;31.60;;
35646;SDS011;28680;45.642;13.756;2023-02-22T05:34:00;72.32;;;31.52;;
35646;SDS011;28680;45.642;13.756;2023-02-22T05:36:26;71.95;;;32.85;;
35646;SDS011;28680;45.642;13.756;2023-02-22T05:38:52;73.22;;;34.53;;
35646;SDS011;28680;45.642;13.756;2023-02-22T05:41:19;96.13;;;39.70;;
35646;SDS011;28680;45.642;13.756;2023-02-22T05:43:45;100.03;;;40.35;;
35646;SDS011;28680;45.642;13.756;2023-02-22T05:46:12;109.22;;;43.92;;
35646;SDS011;28680;45.642;13.756;2023-02-22T05:48:39;171.07;;;49.75;;
35646;SDS011;28680;45.642;13.756;2023-02-22T05:51:05;134.63;;;51.97;;
35646;SDS011;28680;45.642;13.756;2023-02-22T05:53:33;149.48;;;51.08;;
35646;SDS011;28680;45.642;13.756;2023-02-22T05:56:00;173.20;;;50.35;;
35646;SDS011;28680;45.642;13.756;2023-02-22T05:58:28;167.32;;;50.60;;
35646;SDS011;28680;45.642;13.756;2023-02-22T06:00:54;138.55;;;50.95;;
35646;SDS011;28680;45.642;13.756;2023-02-22T06:03:20;146.65;;;51.25;;
35646;SDS011;28680;45.642;13.756;2023-02-22T06:05:46;145.75;;;48.47;;
35646;SDS011;28680;45.642;13.756;2023-02-22T06:08:12;307.73;;;50.40;;
35646;SDS011;28680;45.642;13.756;2023-02-22T06:10:38;247.77;;;51.15;;
35646;SDS011;28680;45.642;13.756;2023-02-22T06:13:04;215.90;;;50.70;;
35646;SDS011;28680;45.642;13.756;2023-02-22T06:15:30;280.58;;;50.22;;
35646;SDS011;28680;45.642;13.756;2023-02-22T06:17:57;212.40;;;49.58;;
35646;SDS011;28680;45.642;13.756;2023-02-22T06:20:24;303.90;;;52.35;;
35646;SDS011;28680;45.642;13.756;2023-02-22T06:22:53;281.50;;;51.38;;
35646;SDS011;28680;45.642;13.756;2023-02-22T06:25:23;315.05;;;49.67;;
35646;SDS011;28680;45.642;13.756;2023-02-22T06:27:51;264.52;;;49.85;;
35646;SDS011;28680;45.642;13.756;2023-02-22T06:30:18;278.58;;;53.65;;
35646;SDS011;28680;45.642;13.756;2023-02-22T06:32:46;176.00;;;45.95;;
35646;SDS011;28680;45.642;13.756;2023-02-22T06:35:13;212.38;;;48.75;;
35646;SDS011;28680;45.642;13.756;2023-02-22T06:37:40;203.95;;;43.05;;
35646;SDS011;28680;45.642;13.756;2023-02-22T06:40:06;205.60;;;46.10;;
35646;SDS011;28680;45.642;13.756;2023-02-22T06:42:32;162.23;;;43.35;;
35646;SDS011;28680;45.642;13.756;2023-02-22T06:44:58;159.55;;;44.22;;
35646;SDS011;28680;45.642;13.756;2023-02-22T06:47:24;200.52;;;45.45;;
35646;SDS011;28680;45.642;13.756;2023-02-22T06:49:56;189.38;;;45.47;;
35646;SDS011;28680;45.642;13.756;2023-02-22T06:52:24;160.68;;;44.95;;
35646;SDS011;28680;45.642;13.756;2023-02-22T06:54:51;139.95;;;45.58;;
35646;SDS011;28680;45.642;13.756;2023-02-22T06:57:17;166.00;;;43.83;;
35646;SDS011;28680;45.642;13.756;2023-02-22T06:59:43;164.90;;;45.53;;
35646;SDS011;28680;45.642;13.756;2023-02-22T07:02:13;149.45;;;50.45;;
35646;SDS011;28680;45.642;13.756;2023-02-22T07:04:39;147.40;;;44.83;;
35646;SDS011;28680;45.642;13.756;2023-02-22T07:07:05;270.00;;;43.58;;
35646;SDS011;28680;45.642;13.756;2023-02-22T07:09:31;174.27;;;43.72;;
35646;SDS011;28680;45.642;13.756;2023-02-22T07:11:57;152.00;;;44.92;;
35646;SDS011;28680;45.642;13.756;2023-02-22T07:14:23;200.18;;;43.88;;
35646;SDS011;28680;45.642;13.756;2023-02-22T07:16:49;170.45;;;40.22;;
35646;SDS011;28680;45.642;13.756;2023-02-22T07:19:15;241.50;;;37.95;;
35646;SDS011;28680;45.642;13.756;2023-02-22T07:21:41;205.80;;;39.83;;
35646;SDS011;28680;45.642;13.756;2023-02-22T07:24:07;167.35;;;41.80;;
35646;SDS011;28680;45.642;13.756;2023-02-22T07:26:37;185.70;;;42.33;;
35646;SDS011;28680;45.642;13.756;2023-02-22T07:29:05;241.90;;;43.25;;
35646;SDS011;28680;45.642;13.756;2023-02-22T07:31:37;151.48;;;42.42;;
35646;SDS011;28680;45.642;13.756;2023-02-22T07:34:03;134.02;;;37.47;;
35646;SDS011;28680;45.642;13.756;2023-02-22T07:36:29;139.50;;;36.28;;
35646;SDS011;28680;45.642;13.756;2023-02-22T07:38:55;110.60;;;33.90;;
35646;SDS011;28680;45.642;13.756;2023-02-22T07:41:21;110.38;;;34.15;;
35646;SDS011;28680;45.642;13.756;2023-02-22T07:43:47;121.53;;;32.22;;
35646;SDS011;28680;45.642;13.756;2023-02-22T07:46:12;109.45;;;32.78;;
35646;SDS011;28680;45.642;13.756;2023-02-22T07:48:38;162.05;;;34.08;;
35646;SDS011;28680;45.642;13.756;2023-02-22T07:51:04;137.80;;;38.60;;
35646;SDS011;28680;45.642;13.756;2023-02-22T07:53:31;145.13;;;38.67;;
35646;SDS011;28680;45.642;13.756;2023-02-22T07:55:58;110.53;;;36.58;;
35646;SDS011;28680;45.642;13.756;2023-02-22T07:58:27;86.53;;;30.63;;
35646;SDS011;28680;45.642;13.756;2023-02-22T08:00:54;82.85;;;30.23;;
35646;SDS011;28680;45.642;13.756;2023-02-22T08:03:22;135.25;;;30.13;;
35646;SDS011;28680;45.642;13.756;2023-02-22T08:05:51;99.30;;;30.15;;
35646;SDS011;28680;45.642;13.756;2023-02-22T08:08:21;107.45;;;30.85;;
35646;SDS011;28680;45.642;13.756;2023-02-22T08:10:48;158.57;;;36.03;;
35646;SDS011;28680;45.642;13.756;2023-02-22T08:13:15;79.90;;;28.95;;
35646;SDS011;28680;45.642;13.756;2023-02-22T08:15:43;69.20;;;27.13;;
35646;SDS011;28680;45.642;13.756;2023-02-22T08:18:10;70.00;;;28.25;;
35646;SDS011;28680;45.642;13.756;2023-02-22T08:20:40;66.70;;;26.70;;
35646;SDS011;28680;45.642;13.756;2023-02-22T08:23:08;67.93;;;26.05;;
35646;SDS011;28680;45.642;13.756;2023-02-22T08:25:35;69.55;;;26.67;;
35646;SDS011;28680;45.642;13.756;2023-02-22T08:28:03;70.88;;;26.70;;
35646;SDS011;28680;45.642;13.756;2023-02-22T08:30:32;60.50;;;24.83;;
35646;SDS011;28680;45.642;13.756;2023-02-22T08:32:59;54.10;;;24.45;;
35646;SDS011;28680;45.642;13.756;2023-02-22T08:35:29;56.63;;;24.27;;
35646;SDS011;28680;45.642;13.756;2023-02-22T08:37:58;62.15;;;26.17;;
35646;SDS011;28680;45.642;13.756;2023-02-22T08:40:28;59.33;;;25.80;;
35646;SDS011;28680;45.642;13.756;2023-02-22T08:42:57;59.35;;;25.70;;
35646;SDS011;28680;45.642;13.756;2023-02-22T08:45:23;61.85;;;25.77;;
35646;SDS011;28680;45.642;13.756;2023-02-22T08:47:49;63.75;;;24.67;;
35646;SDS011;28680;45.642;13.756;2023-02-22T08:50:17;63.00;;;25.45;;
35646;SDS011;28680;45.642;13.756;2023-02-22T08:52:49;63.78;;;24.67;;
35646;SDS011;28680;45.642;13.756;2023-02-22T08:55:24;60.47;;;25.73;;
35646;SDS011;28680;45.642;13.756;2023-02-22T08:57:51;67.65;;;28.35;;
35646;SDS011;28680;45.642;13.756;2023-02-22T09:00:18;95.10;;;30.52;;
35646;SDS011;28680;45.642;13.756;2023-02-22T09:02:48;146.43;;;33.30;;
35646;SDS011;28680;45.642;13.756;2023-02-22T09:05:15;86.18;;;27.75;;
35646;SDS011;28680;45.642;13.756;2023-02-22T09:07:42;92.20;;;29.80;;
35646;SDS011;28680;45.642;13.756;2023-02-22T09:10:19;84.88;;;29.17;;
35646;SDS011;28680;45.642;13.756;2023-02-22T09:12:50;62.53;;;27.10;;
35646;SDS011;28680;45.642;13.756;2023-02-22T09:15:16;55.22;;;24.60;;
35646;SDS011;28680;45.642;13.756;2023-02-22T09:17:43;46.95;;;21.60;;
35646;SDS011;28680;45.642;13.756;2023-02-22T09:20:09;51.80;;;24.40;;
35646;SDS011;28680;45.642;13.756;2023-02-22T09:22:36;42.08;;;20.80;;
35646;SDS011;28680;45.642;13.756;2023-02-22T09:25:03;48.55;;;23.60;;
35646;SDS011;28680;45.642;13.756;2023-02-22T09:27:30;44.53;;;21.50;;
35646;SDS011;28680;45.642;13.756;2023-02-22T09:29:56;49.58;;;24.00;;
35646;SDS011;28680;45.642;13.756;2023-02-22T09:32:23;48.80;;;23.17;;
35646;SDS011;28680;45.642;13.756;2023-02-22T09:34:51;54.95;;;25.30;;
35646;SDS011;28680;45.642;13.756;2023-02-22T09:37:19;54.08;;;24.10;;
35646;SDS011;28680;45.642;13.756;2023-02-22T09:39:45;47.88;;;21.45;;
35646;SDS011;28680;45.642;13.756;2023-02-22T09:42:12;41.63;;;21.00;;
35646;SDS011;28680;45.642;13.756;2023-02-22T09:45:22;47.70;;;22.50;;
35646;SDS011;28680;45.642;13.756;2023-02-22T09:48:12;43.80;;;21.10;;
35646;SDS011;28680;45.642;13.756;2023-02-22T09:50:41;97.28;;;24.70;;
35646;SDS011;28680;45.642;13.756;2023-02-22T09:55:57;112.57;;;27.33;;
35646;SDS011;28680;45.642;13.756;2023-02-22T09:58:32;42.03;;;20.90;;
35646;SDS011;28680;45.642;13.756;2023-02-22T10:01:17;42.47;;;19.58;;
35646;SDS011;28680;45.642;13.756;2023-02-22T10:06:59;73.25;;;26.75;;
35646;SDS011;28680;45.642;13.756;2023-02-22T10:09:42;127.00;;;31.30;;
35646;SDS011;28680;45.642;13.756;2023-02-22T10:12:12;49.28;;;24.80;;
35646;SDS011;28680;45.642;13.756;2023-02-22T10:23:41;58.47;;;26.70;;
35646;SDS011;28680;45.642;13.756;2023-02-22T10:26:42;53.88;;;25.70;;
35646;SDS011;28680;45.642;13.756;2023-02-22T10:32:04;54.50;;;26.08;;
35646;SDS011;28680;45.642;13.756;2023-02-22T10:34:47;62.03;;;28.75;;
35646;SDS011;28680;45.642;13.756;2023-02-22T10:40:10;61.45;;;28.85;;
35646;SDS011;28680;45.642;13.756;2023-02-22T10:42:47;62.10;;;30.05;;
35646;SDS011;28680;45.642;13.756;2023-02-22T10:45:20;60.63;;;28.20;;
35646;SDS011;28680;45.642;13.756;2023-02-22T10:47:53;63.90;;;29.55;;
35646;SDS011;28680;45.642;13.756;2023-02-22T10:50:22;61.65;;;29.30;;
35646;SDS011;28680;45.642;13.756;2023-02-22T10:52:54;57.15;;;27.92;;
35646;SDS011;28680;45.642;13.756;2023-02-22T10:55:20;56.10;;;27.00;;
35646;SDS011;28680;45.642;13.756;2023-02-22T10:57:48;43.47;;;23.58;;
35646;SDS011;28680;45.642;13.756;2023-02-22T11:00:36;46.90;;;25.30;;
35646;SDS011;28680;45.642;13.756;2023-02-22T11:05:43;45.50;;;22.95;;
35646;SDS011;28680;45.642;13.756;2023-02-22T11:08:29;45.60;;;23.73;;
35646;SDS011;28680;45.642;13.756;2023-02-22T11:10:59;46.10;;;24.52;;
35646;SDS011;28680;45.642;13.756;2023-02-22T11:13:42;37.13;;;20.35;;
35646;SDS011;28680;45.642;13.756;2023-02-22T11:16:19;33.17;;;17.75;;
35646;SDS011;28680;45.642;13.756;2023-02-22T11:19:06;46.20;;;25.48;;
35646;SDS011;28680;45.642;13.756;2023-02-22T11:21:55;46.53;;;24.52;;
35646;SDS011;28680;45.642;13.756;2023-02-22T11:24:28;31.40;;;17.42;;
35646;SDS011;28680;45.642;13.756;2023-02-22T11:26:59;26.25;;;14.07;;
35646;SDS011;28680;45.642;13.756;2023-02-22T11:32:00;23.27;;;12.95;;
35646;SDS011;28680;45.642;13.756;2023-02-22T11:34:45;26.40;;;15.05;;
35646;SDS011;28680;45.642;13.756;2023-02-22T11:37:14;15.40;;;9.45;;
35646;SDS011;28680;45.642;13.756;2023-02-22T11:40:09;24.95;;;14.43;;
35646;SDS011;28680;45.642;13.756;2023-02-22T11:42:44;20.30;;;10.48;;
35646;SDS011;28680;45.642;13.756;2023-02-22T11:45:15;18.92;;;10.88;;
35646;SDS011;28680;45.642;13.756;2023-02-22T11:47:56;24.08;;;13.50;;
35646;SDS011;28680;45.642;13.756;2023-02-22T11:56:27;35.05;;;13.65;;
35646;SDS011;28680;45.642;13.756;2023-02-22T12:01:57;18.90;;;10.27;;
35646;SDS011;28680;45.642;13.756;2023-02-22T12:13:55;36.50;;;21.05;;
35646;SDS011;28680;45.642;13.756;2023-02-22T12:22:53;51.15;;;27.45;;
35646;SDS011;28680;45.642;13.756;2023-02-22T12:25:40;57.13;;;31.42;;
35646;SDS011;28680;45.642;13.756;2023-02-22T12:28:24;57.55;;;33.55;;
35646;SDS011;28680;45.642;13.756;2023-02-22T12:34:28;131.20;;;38.10;;
35646;SDS011;28680;45.642;13.756;2023-02-22T12:37:20;89.93;;;33.78;;
35646;SDS011;28680;45.642;13.756;2023-02-22T12:42:57;59.50;;;30.90;;
35646;SDS011;28680;45.642;13.756;2023-02-22T12:52:25;57.53;;;32.10;;
35646;SDS011;28680;45.642;13.756;2023-02-22T12:55:30;51.05;;;29.83;;
35646;SDS011;28680;45.642;13.756;2023-02-22T12:58:16;55.85;;;31.55;;
35646;SDS011;28680;45.642;13.756;2023-02-22T13:14:43;57.05;;;32.42;;
35646;SDS011;28680;45.642;13.756;2023-02-22T13:23:00;56.40;;;32.42;;
35646;SDS011;28680;45.642;13.756;2023-02-22T13:25:58;54.90;;;32.10;;
35646;SDS011;28680;45.642;13.756;2023-02-22T13:28:55;54.88;;;31.85;;
35646;SDS011;28680;45.642;13.756;2023-02-22T13:31:40;55.38;;;32.63;;
35646;SDS011;28680;45.642;13.756;2023-02-22T13:51:51;58.83;;;32.65;;
35646;SDS011;28680;45.642;13.756;2023-02-22T13:54:24;64.00;;;33.45;;
35646;SDS011;28680;45.642;13.756;2023-02-22T13:57:03;52.85;;;30.52;;
35646;SDS011;28680;45.642;13.756;2023-02-22T13:59:42;57.92;;;33.03;;
35646;SDS011;28680;45.642;13.756;2023-02-22T14:02:11;58.28;;;32.35;;
35646;SDS011;28680;45.642;13.756;2023-02-22T14:13:19;54.30;;;31.08;;
35646;SDS011;28680;45.642;13.756;2023-02-22T14:18:39;48.92;;;29.33;;
35646;SDS011;28680;45.642;13.756;2023-02-22T14:21:11;50.33;;;30.15;;
35646;SDS011;28680;45.642;13.756;2023-02-22T14:23:44;51.75;;;28.98;;
35646;SDS011;28680;45.642;13.756;2023-02-22T14:31:33;51.92;;;29.10;;
35646;SDS011;28680;45.642;13.756;2023-02-22T14:37:13;53.17;;;30.10;;
35646;SDS011;28680;45.642;13.756;2023-02-22T14:39:55;52.13;;;29.35;;
35646;SDS011;28680;45.642;13.756;2023-02-22T14:42:59;54.72;;;29.92;;
35646;SDS011;28680;45.642;13.756;2023-02-22T14:45:34;54.72;;;30.33;;
35646;SDS011;28680;45.642;13.756;2023-02-22T14:51:13;51.85;;;29.50;;
35646;SDS011;28680;45.642;13.756;2023-02-22T14:53:53;55.10;;;30.80;;
35646;SDS011;28680;45.642;13.756;2023-02-22T15:00:00;54.08;;;31.15;;
35646;SDS011;28680;45.642;13.756;2023-02-22T15:02:44;56.67;;;32.45;;
35646;SDS011;28680;45.642;13.756;2023-02-22T15:05:14;55.53;;;31.70;;
35646;SDS011;28680;45.642;13.756;2023-02-22T15:08:06;58.17;;;31.45;;
35646;SDS011;28680;45.642;13.756;2023-02-22T15:13:23;61.67;;;31.33;;
35646;SDS011;28680;45.642;13.756;2023-02-22T15:21:07;54.22;;;30.17;;
35646;SDS011;28680;45.642;13.756;2023-02-22T15:26:40;56.67;;;32.00;;
35646;SDS011;28680;45.642;13.756;2023-02-22T15:29:13;54.75;;;30.92;;
35646;SDS011;28680;45.642;13.756;2023-02-22T15:31:41;53.08;;;30.13;;
35646;SDS011;28680;45.642;13.756;2023-02-22T15:36:39;59.67;;;31.55;;
35646;SDS011;28680;45.642;13.756;2023-02-22T15:44:48;53.47;;;29.75;;
35646;SDS011;28680;45.642;13.756;2023-02-22T15:47:18;54.55;;;29.38;;
35646;SDS011;28680;45.642;13.756;2023-02-22T15:55:27;52.85;;;29.50;;
35646;SDS011;28680;45.642;13.756;2023-02-22T15:58:06;63.15;;;33.33;;
35646;SDS011;28680;45.642;13.756;2023-02-22T16:00:43;58.70;;;32.28;;
35646;SDS011;28680;45.642;13.756;2023-02-22T16:03:34;53.90;;;30.20;;
35646;SDS011;28680;45.642;13.756;2023-02-22T16:06:11;61.58;;;31.58;;
35646;SDS011;28680;45.642;13.756;2023-02-22T16:09:10;56.42;;;30.30;;
35646;SDS011;28680;45.642;13.756;2023-02-22T16:11:46;61.67;;;31.30;;
35646;SDS011;28680;45.642;13.756;2023-02-22T16:22:38;58.80;;;31.55;;
35646;SDS011;28680;45.642;13.756;2023-02-22T16:27:52;54.30;;;30.27;;
35646;SDS011;28680;45.642;13.756;2023-02-22T16:33:05;57.60;;;31.17;;
35646;SDS011;28680;45.642;13.756;2023-02-22T16:35:37;58.50;;;30.87;;
35646;SDS011;28680;45.642;13.756;2023-02-22T16:38:05;50.35;;;28.13;;
35646;SDS011;28680;45.642;13.756;2023-02-22T16:40:41;58.28;;;30.83;;
35646;SDS011;28680;45.642;13.756;2023-02-22T16:43:22;58.55;;;28.50;;
35646;SDS011;28680;45.642;13.756;2023-02-22T16:45:53;54.03;;;27.73;;
35646;SDS011;28680;45.642;13.756;2023-02-22T16:50:54;50.42;;;27.92;;
35646;SDS011;28680;45.642;13.756;2023-02-22T16:53:25;50.70;;;26.60;;
35646;SDS011;28680;45.642;13.756;2023-02-22T16:55:55;57.80;;;30.25;;
35646;SDS011;28680;45.642;13.756;2023-02-22T16:58:27;53.88;;;28.40;;
35646;SDS011;28680;45.642;13.756;2023-02-22T17:00:56;58.83;;;30.33;;
35646;SDS011;28680;45.642;13.756;2023-02-22T17:03:22;57.40;;;29.55;;
35646;SDS011;28680;45.642;13.756;2023-02-22T17:05:50;60.15;;;31.77;;
35646;SDS011;28680;45.642;13.756;2023-02-22T17:08:17;60.63;;;31.38;;
35646;SDS011;28680;45.642;13.756;2023-02-22T17:10:43;61.55;;;31.88;;
35646;SDS011;28680;45.642;13.756;2023-02-22T17:13:10;63.95;;;32.15;;
35646;SDS011;28680;45.642;13.756;2023-02-22T17:15:36;62.25;;;31.27;;
35646;SDS011;28680;45.642;13.756;2023-02-22T17:18:05;61.30;;;31.60;;
35646;SDS011;28680;45.642;13.756;2023-02-22T17:20:41;61.92;;;31.60;;
35646;SDS011;28680;45.642;13.756;2023-02-22T17:23:09;57.40;;;30.52;;
35646;SDS011;28680;45.642;13.756;2023-02-22T17:25:39;62.50;;;32.78;;
35646;SDS011;28680;45.642;13.756;2023-02-22T17:28:14;56.58;;;30.90;;
35646;SDS011;28680;45.642;13.756;2023-02-22T17:30:40;62.90;;;32.30;;
35646;SDS011;28680;45.642;13.756;2023-02-22T17:33:09;63.10;;;31.38;;
35646;SDS011;28680;45.642;13.756;2023-02-22T17:35:40;61.75;;;31.73;;
35646;SDS011;28680;45.642;13.756;2023-02-22T17:38:06;61.75;;;31.95;;
35646;SDS011;28680;45.642;13.756;2023-02-22T17:40:36;56.08;;;29.92;;
35646;SDS011;28680;45.642;13.756;2023-02-22T17:43:04;65.25;;;32.55;;
35646;SDS011;28680;45.642;13.756;2023-02-22T17:45:33;61.67;;;32.95;;
35646;SDS011;28680;45.642;13.756;2023-02-22T17:48:02;59.20;;;32.13;;
35646;SDS011;28680;45.642;13.756;2023-02-22T17:50:28;65.07;;;32.47;;
35646;SDS011;28680;45.642;13.756;2023-02-22T17:52:56;58.25;;;31.00;;
35646;SDS011;28680;45.642;13.756;2023-02-22T17:55:24;63.25;;;32.00;;